Terminal Aerodrome Forecast
Issued by NWS Charleston, SC

Current Version | Previous Version | Text Only | Print | Product List | Glossary Off
Versions: 1 2 3 4 5 6 7 8 9 10 11 12 13 14 15 16 17 18 19 20 21 22 23 24 25 26 27 28 29 30 31

000
FTUS42 KCHS 061721
TAFCHS
TAF
KCHS 061721Z 0618/0718 05012G16KT P6SM BKN025 OVC035
     FM062200 02005KT P6SM SCT040 SCT250
     FM070300 VRB03KT P6SM FEW250
     FM071300 03007KT P6SM SKC=

USA.gov is the U.S. government's official web portal to all federal, state and local government web resources and services.